sensor_id;sensor_type;location;lat;lon;timestamp;P1;durP1;ratioP1;P2;durP2;ratioP2
19032;SDS011;9649;51.042;13.804;2023-05-20T00:03:43;24.75;;;15.40;;
19032;SDS011;9649;51.042;13.804;2023-05-20T00:08:48;24.05;;;15.60;;
19032;SDS011;9649;51.042;13.804;2023-05-20T00:13:50;23.88;;;15.40;;
19032;SDS011;9649;51.042;13.804;2023-05-20T00:18:53;24.02;;;15.38;;
19032;SDS011;9649;51.042;13.804;2023-05-20T00:23:58;25.88;;;15.25;;
19032;SDS011;9649;51.042;13.804;2023-05-20T00:29:01;24.00;;;14.85;;
19032;SDS011;9649;51.042;13.804;2023-05-20T00:34:04;24.30;;;14.25;;
19032;SDS011;9649;51.042;13.804;2023-05-20T00:39:08;22.88;;;14.48;;
19032;SDS011;9649;51.042;13.804;2023-05-20T00:44:11;22.48;;;14.85;;
19032;SDS011;9649;51.042;13.804;2023-05-20T00:49:14;26.40;;;15.90;;
19032;SDS011;9649;51.042;13.804;2023-05-20T00:54:18;23.23;;;14.95;;
19032;SDS011;9649;51.042;13.804;2023-05-20T00:59:21;21.77;;;14.57;;
19032;SDS011;9649;51.042;13.804;2023-05-20T01:04:24;23.08;;;15.52;;
19032;SDS011;9649;51.042;13.804;2023-05-20T01:09:29;22.90;;;16.27;;
19032;SDS011;9649;51.042;13.804;2023-05-20T01:14:36;26.77;;;17.10;;
19032;SDS011;9649;51.042;13.804;2023-05-20T01:19:45;29.13;;;17.95;;
19032;SDS011;9649;51.042;13.804;2023-05-20T01:24:50;27.23;;;16.85;;
19032;SDS011;9649;51.042;13.804;2023-05-20T01:29:53;28.08;;;17.23;;
19032;SDS011;9649;51.042;13.804;2023-05-20T01:34:56;27.77;;;17.50;;
19032;SDS011;9649;51.042;13.804;2023-05-20T01:40:02;23.40;;;15.57;;
19032;SDS011;9649;51.042;13.804;2023-05-20T01:45:06;25.15;;;16.00;;
19032;SDS011;9649;51.042;13.804;2023-05-20T01:50:09;24.02;;;14.93;;
19032;SDS011;9649;51.042;13.804;2023-05-20T01:55:13;23.25;;;15.70;;
19032;SDS011;9649;51.042;13.804;2023-05-20T02:00:16;24.13;;;15.73;;
19032;SDS011;9649;51.042;13.804;2023-05-20T02:05:19;23.85;;;16.02;;
19032;SDS011;9649;51.042;13.804;2023-05-20T02:10:23;25.35;;;16.27;;
19032;SDS011;9649;51.042;13.804;2023-05-20T02:15:26;23.38;;;15.80;;
19032;SDS011;9649;51.042;13.804;2023-05-20T02:20:29;25.05;;;16.13;;
19032;SDS011;9649;51.042;13.804;2023-05-20T02:25:33;24.15;;;16.30;;
19032;SDS011;9649;51.042;13.804;2023-05-20T02:30:36;25.55;;;16.42;;
19032;SDS011;9649;51.042;13.804;2023-05-20T02:35:39;23.65;;;15.98;;
19032;SDS011;9649;51.042;13.804;2023-05-20T02:40:44;25.63;;;16.10;;
19032;SDS011;9649;51.042;13.804;2023-05-20T02:45:46;23.85;;;17.02;;
19032;SDS011;9649;51.042;13.804;2023-05-20T02:50:49;25.05;;;16.50;;
19032;SDS011;9649;51.042;13.804;2023-05-20T02:55:56;23.90;;;15.63;;
19032;SDS011;9649;51.042;13.804;2023-05-20T03:00:59;26.95;;;17.25;;
19032;SDS011;9649;51.042;13.804;2023-05-20T03:06:02;28.67;;;17.63;;
19032;SDS011;9649;51.042;13.804;2023-05-20T03:11:07;28.95;;;18.80;;
19032;SDS011;9649;51.042;13.804;2023-05-20T03:16:09;29.52;;;18.58;;
19032;SDS011;9649;51.042;13.804;2023-05-20T03:21:13;28.38;;;18.08;;
19032;SDS011;9649;51.042;13.804;2023-05-20T03:26:17;29.35;;;18.75;;
19032;SDS011;9649;51.042;13.804;2023-05-20T03:31:21;28.08;;;18.77;;
19032;SDS011;9649;51.042;13.804;2023-05-20T03:36:24;29.23;;;18.58;;
19032;SDS011;9649;51.042;13.804;2023-05-20T03:41:28;29.95;;;18.63;;
19032;SDS011;9649;51.042;13.804;2023-05-20T03:46:31;28.60;;;17.63;;
19032;SDS011;9649;51.042;13.804;2023-05-20T03:51:34;27.05;;;17.55;;
19032;SDS011;9649;51.042;13.804;2023-05-20T03:56:38;29.52;;;18.48;;
19032;SDS011;9649;51.042;13.804;2023-05-20T04:01:41;29.15;;;18.10;;
19032;SDS011;9649;51.042;13.804;2023-05-20T04:06:44;29.30;;;18.10;;
19032;SDS011;9649;51.042;13.804;2023-05-20T04:11:48;27.92;;;18.38;;
19032;SDS011;9649;51.042;13.804;2023-05-20T04:16:51;32.05;;;19.23;;
19032;SDS011;9649;51.042;13.804;2023-05-20T04:21:54;29.95;;;17.75;;
19032;SDS011;9649;51.042;13.804;2023-05-20T04:26:59;29.33;;;19.30;;
19032;SDS011;9649;51.042;13.804;2023-05-20T04:32:02;28.30;;;18.02;;
19032;SDS011;9649;51.042;13.804;2023-05-20T04:37:05;26.88;;;17.98;;
19032;SDS011;9649;51.042;13.804;2023-05-20T04:42:10;23.90;;;15.95;;
19032;SDS011;9649;51.042;13.804;2023-05-20T04:47:13;31.63;;;17.58;;
19032;SDS011;9649;51.042;13.804;2023-05-20T04:52:16;28.55;;;16.92;;
19032;SDS011;9649;51.042;13.804;2023-05-20T04:57:20;27.50;;;17.10;;
19032;SDS011;9649;51.042;13.804;2023-05-20T05:02:23;28.05;;;18.05;;
19032;SDS011;9649;51.042;13.804;2023-05-20T05:07:26;28.08;;;18.00;;
19032;SDS011;9649;51.042;13.804;2023-05-20T05:12:30;27.70;;;17.13;;
19032;SDS011;9649;51.042;13.804;2023-05-20T05:17:33;27.38;;;17.35;;
19032;SDS011;9649;51.042;13.804;2023-05-20T05:22:36;26.83;;;17.10;;
19032;SDS011;9649;51.042;13.804;2023-05-20T05:27:41;24.42;;;16.83;;
19032;SDS011;9649;51.042;13.804;2023-05-20T05:32:45;29.65;;;17.00;;
19032;SDS011;9649;51.042;13.804;2023-05-20T05:37:48;27.52;;;18.10;;
19032;SDS011;9649;51.042;13.804;2023-05-20T05:42:52;27.05;;;18.00;;
19032;SDS011;9649;51.042;13.804;2023-05-20T05:47:55;27.13;;;18.15;;
19032;SDS011;9649;51.042;13.804;2023-05-20T05:52:57;29.08;;;18.48;;
19032;SDS011;9649;51.042;13.804;2023-05-20T05:58:02;30.30;;;18.23;;
19032;SDS011;9649;51.042;13.804;2023-05-20T06:03:04;27.63;;;18.55;;
19032;SDS011;9649;51.042;13.804;2023-05-20T06:08:08;29.30;;;18.10;;
19032;SDS011;9649;51.042;13.804;2023-05-20T06:13:12;29.92;;;19.05;;
19032;SDS011;9649;51.042;13.804;2023-05-20T06:18:15;29.75;;;19.25;;
19032;SDS011;9649;51.042;13.804;2023-05-20T06:23:17;27.42;;;18.25;;
19032;SDS011;9649;51.042;13.804;2023-05-20T06:28:22;25.15;;;17.60;;
19032;SDS011;9649;51.042;13.804;2023-05-20T06:33:25;28.08;;;18.58;;
19032;SDS011;9649;51.042;13.804;2023-05-20T06:38:29;27.63;;;17.45;;
19032;SDS011;9649;51.042;13.804;2023-05-20T06:43:33;26.17;;;18.13;;
19032;SDS011;9649;51.042;13.804;2023-05-20T06:48:36;24.85;;;17.27;;
19032;SDS011;9649;51.042;13.804;2023-05-20T06:53:39;25.50;;;17.50;;
19032;SDS011;9649;51.042;13.804;2023-05-20T06:58:43;25.67;;;16.33;;
19032;SDS011;9649;51.042;13.804;2023-05-20T07:03:45;23.45;;;16.42;;
19032;SDS011;9649;51.042;13.804;2023-05-20T07:08:48;23.25;;;16.08;;
19032;SDS011;9649;51.042;13.804;2023-05-20T07:13:52;21.88;;;15.40;;
19032;SDS011;9649;51.042;13.804;2023-05-20T07:18:55;28.77;;;16.58;;
19032;SDS011;9649;51.042;13.804;2023-05-20T07:23:58;24.05;;;17.25;;
19032;SDS011;9649;51.042;13.804;2023-05-20T07:29:03;25.20;;;16.23;;
19032;SDS011;9649;51.042;13.804;2023-05-20T07:34:06;24.83;;;17.80;;
19032;SDS011;9649;51.042;13.804;2023-05-20T07:39:09;25.95;;;17.40;;
19032;SDS011;9649;51.042;13.804;2023-05-20T07:44:16;29.13;;;17.67;;
19032;SDS011;9649;51.042;13.804;2023-05-20T07:49:21;26.58;;;17.00;;
19032;SDS011;9649;51.042;13.804;2023-05-20T07:54:24;24.60;;;15.68;;
19032;SDS011;9649;51.042;13.804;2023-05-20T07:59:29;23.85;;;16.60;;
19032;SDS011;9649;51.042;13.804;2023-05-20T08:04:31;23.50;;;15.48;;
19032;SDS011;9649;51.042;13.804;2023-05-20T08:09:35;24.92;;;17.30;;
19032;SDS011;9649;51.042;13.804;2023-05-20T08:14:39;21.23;;;15.18;;
19032;SDS011;9649;51.042;13.804;2023-05-20T08:19:42;23.30;;;14.93;;
19032;SDS011;9649;51.042;13.804;2023-05-20T08:24:45;20.15;;;15.00;;
19032;SDS011;9649;51.042;13.804;2023-05-20T08:29:49;20.33;;;14.40;;
19032;SDS011;9649;51.042;13.804;2023-05-20T08:34:51;22.48;;;15.13;;
19032;SDS011;9649;51.042;13.804;2023-05-20T08:39:54;19.25;;;14.50;;
19032;SDS011;9649;51.042;13.804;2023-05-20T08:44:58;26.70;;;15.38;;
19032;SDS011;9649;51.042;13.804;2023-05-20T08:50:03;22.48;;;13.85;;
19032;SDS011;9649;51.042;13.804;2023-05-20T08:55:06;20.33;;;14.48;;
19032;SDS011;9649;51.042;13.804;2023-05-20T09:00:14;21.73;;;13.65;;
19032;SDS011;9649;51.042;13.804;2023-05-20T09:05:18;18.83;;;12.95;;
19032;SDS011;9649;51.042;13.804;2023-05-20T09:10:21;18.83;;;13.20;;
19032;SDS011;9649;51.042;13.804;2023-05-20T09:15:25;18.13;;;12.25;;
19032;SDS011;9649;51.042;13.804;2023-05-20T09:20:28;18.00;;;11.75;;
19032;SDS011;9649;51.042;13.804;2023-05-20T09:25:32;16.95;;;11.93;;
19032;SDS011;9649;51.042;13.804;2023-05-20T09:30:36;15.10;;;11.48;;
19032;SDS011;9649;51.042;13.804;2023-05-20T09:35:40;15.13;;;11.80;;
19032;SDS011;9649;51.042;13.804;2023-05-20T09:40:43;16.42;;;11.20;;
19032;SDS011;9649;51.042;13.804;2023-05-20T09:45:48;16.75;;;12.38;;
19032;SDS011;9649;51.042;13.804;2023-05-20T09:50:52;16.75;;;11.20;;
19032;SDS011;9649;51.042;13.804;2023-05-20T09:55:57;13.40;;;10.75;;
19032;SDS011;9649;51.042;13.804;2023-05-20T10:01:01;13.15;;;11.20;;
19032;SDS011;9649;51.042;13.804;2023-05-20T10:06:10;14.45;;;11.40;;
19032;SDS011;9649;51.042;13.804;2023-05-20T10:11:22;12.93;;;10.55;;
19032;SDS011;9649;51.042;13.804;2023-05-20T10:16:33;14.05;;;10.70;;
19032;SDS011;9649;51.042;13.804;2023-05-20T10:21:43;12.63;;;10.13;;
19032;SDS011;9649;51.042;13.804;2023-05-20T10:26:53;13.90;;;10.93;;
19032;SDS011;9649;51.042;13.804;2023-05-20T10:31:58;14.32;;;10.85;;
19032;SDS011;9649;51.042;13.804;2023-05-20T10:37:01;13.32;;;11.05;;
19032;SDS011;9649;51.042;13.804;2023-05-20T10:42:05;11.00;;;9.48;;
19032;SDS011;9649;51.042;13.804;2023-05-20T10:47:09;11.75;;;10.30;;
19032;SDS011;9649;51.042;13.804;2023-05-20T10:52:16;11.50;;;9.40;;
19032;SDS011;9649;51.042;13.804;2023-05-20T10:57:19;13.85;;;10.93;;
19032;SDS011;9649;51.042;13.804;2023-05-20T11:02:24;11.02;;;9.70;;
19032;SDS011;9649;51.042;13.804;2023-05-20T11:07:29;12.25;;;9.00;;
19032;SDS011;9649;51.042;13.804;2023-05-20T11:12:34;12.75;;;10.13;;
19032;SDS011;9649;51.042;13.804;2023-05-20T11:17:38;11.07;;;9.30;;
19032;SDS011;9649;51.042;13.804;2023-05-20T11:22:53;12.25;;;9.65;;
19032;SDS011;9649;51.042;13.804;2023-05-20T11:27:56;14.38;;;10.18;;
19032;SDS011;9649;51.042;13.804;2023-05-20T11:33:01;11.40;;;10.02;;
19032;SDS011;9649;51.042;13.804;2023-05-20T11:38:05;15.65;;;10.20;;
19032;SDS011;9649;51.042;13.804;2023-05-20T11:43:09;13.38;;;9.45;;
19032;SDS011;9649;51.042;13.804;2023-05-20T11:48:14;15.90;;;9.98;;
19032;SDS011;9649;51.042;13.804;2023-05-20T11:53:18;10.82;;;9.35;;
19032;SDS011;9649;51.042;13.804;2023-05-20T11:58:22;10.57;;;9.15;;
19032;SDS011;9649;51.042;13.804;2023-05-20T12:03:26;11.10;;;8.65;;
19032;SDS011;9649;51.042;13.804;2023-05-20T12:08:30;10.13;;;8.75;;
19032;SDS011;9649;51.042;13.804;2023-05-20T12:13:32;11.30;;;10.10;;
19032;SDS011;9649;51.042;13.804;2023-05-20T12:18:37;11.43;;;9.05;;
19032;SDS011;9649;51.042;13.804;2023-05-20T12:23:40;14.13;;;10.18;;
19032;SDS011;9649;51.042;13.804;2023-05-20T12:28:42;10.77;;;9.65;;
19032;SDS011;9649;51.042;13.804;2023-05-20T12:33:47;10.52;;;8.77;;
19032;SDS011;9649;51.042;13.804;2023-05-20T12:38:49;10.25;;;8.32;;
19032;SDS011;9649;51.042;13.804;2023-05-20T12:43:52;12.38;;;9.15;;
19032;SDS011;9649;51.042;13.804;2023-05-20T12:48:56;11.90;;;8.85;;
19032;SDS011;9649;51.042;13.804;2023-05-20T12:54:00;10.60;;;9.50;;
19032;SDS011;9649;51.042;13.804;2023-05-20T12:59:02;14.05;;;9.50;;
19032;SDS011;9649;51.042;13.804;2023-05-20T13:04:07;13.27;;;9.98;;
19032;SDS011;9649;51.042;13.804;2023-05-20T13:09:09;15.00;;;10.10;;
19032;SDS011;9649;51.042;13.804;2023-05-20T13:14:12;12.20;;;9.00;;
19032;SDS011;9649;51.042;13.804;2023-05-20T13:19:21;11.45;;;9.00;;
19032;SDS011;9649;51.042;13.804;2023-05-20T13:24:25;12.63;;;9.05;;
19032;SDS011;9649;51.042;13.804;2023-05-20T13:29:28;11.35;;;9.05;;
19032;SDS011;9649;51.042;13.804;2023-05-20T13:34:32;13.20;;;9.05;;
19032;SDS011;9649;51.042;13.804;2023-05-20T13:39:35;12.32;;;8.68;;
19032;SDS011;9649;51.042;13.804;2023-05-20T13:44:38;12.15;;;8.45;;
19032;SDS011;9649;51.042;13.804;2023-05-20T13:49:42;12.05;;;9.30;;
19032;SDS011;9649;51.042;13.804;2023-05-20T13:54:45;14.32;;;9.82;;
19032;SDS011;9649;51.042;13.804;2023-05-20T13:59:48;11.10;;;9.13;;
19032;SDS011;9649;51.042;13.804;2023-05-20T14:04:52;14.32;;;9.40;;
19032;SDS011;9649;51.042;13.804;2023-05-20T14:09:55;13.40;;;9.68;;
19032;SDS011;9649;51.042;13.804;2023-05-20T14:14:58;12.90;;;9.90;;
19032;SDS011;9649;51.042;13.804;2023-05-20T14:20:02;13.00;;;9.38;;
19032;SDS011;9649;51.042;13.804;2023-05-20T14:25:06;14.32;;;10.02;;
19032;SDS011;9649;51.042;13.804;2023-05-20T14:30:09;17.05;;;10.85;;
19032;SDS011;9649;51.042;13.804;2023-05-20T14:35:14;13.45;;;10.77;;
19032;SDS011;9649;51.042;13.804;2023-05-20T14:40:19;15.48;;;10.80;;
19032;SDS011;9649;51.042;13.804;2023-05-20T14:45:22;14.00;;;9.75;;
19032;SDS011;9649;51.042;13.804;2023-05-20T14:50:29;13.75;;;10.02;;
19032;SDS011;9649;51.042;13.804;2023-05-20T14:55:32;16.30;;;11.00;;
19032;SDS011;9649;51.042;13.804;2023-05-20T15:00:35;15.05;;;11.38;;
19032;SDS011;9649;51.042;13.804;2023-05-20T15:05:39;15.82;;;10.88;;
19032;SDS011;9649;51.042;13.804;2023-05-20T15:10:42;16.80;;;11.05;;
19032;SDS011;9649;51.042;13.804;2023-05-20T15:15:45;14.73;;;11.68;;
19032;SDS011;9649;51.042;13.804;2023-05-20T15:20:49;19.73;;;10.95;;
19032;SDS011;9649;51.042;13.804;2023-05-20T15:25:52;17.48;;;11.23;;
19032;SDS011;9649;51.042;13.804;2023-05-20T15:30:54;18.98;;;11.05;;
19032;SDS011;9649;51.042;13.804;2023-05-20T15:35:58;20.13;;;11.45;;
19032;SDS011;9649;51.042;13.804;2023-05-20T15:41:03;19.70;;;11.57;;
19032;SDS011;9649;51.042;13.804;2023-05-20T15:46:06;15.85;;;11.77;;
19032;SDS011;9649;51.042;13.804;2023-05-20T15:51:11;17.63;;;12.00;;
19032;SDS011;9649;51.042;13.804;2023-05-20T15:56:14;16.60;;;12.10;;
19032;SDS011;9649;51.042;13.804;2023-05-20T16:01:17;22.65;;;12.73;;
19032;SDS011;9649;51.042;13.804;2023-05-20T16:06:23;16.00;;;13.00;;
19032;SDS011;9649;51.042;13.804;2023-05-20T16:11:26;21.90;;;13.93;;
19032;SDS011;9649;51.042;13.804;2023-05-20T16:16:31;20.23;;;13.18;;
19032;SDS011;9649;51.042;13.804;2023-05-20T16:21:37;18.23;;;12.50;;
19032;SDS011;9649;51.042;13.804;2023-05-20T16:26:40;17.52;;;12.20;;
19032;SDS011;9649;51.042;13.804;2023-05-20T16:31:43;21.73;;;12.07;;
19032;SDS011;9649;51.042;13.804;2023-05-20T16:36:48;17.25;;;11.95;;
19032;SDS011;9649;51.042;13.804;2023-05-20T16:41:51;16.02;;;12.55;;
19032;SDS011;9649;51.042;13.804;2023-05-20T16:46:57;20.35;;;12.80;;
19032;SDS011;9649;51.042;13.804;2023-05-20T16:52:01;14.45;;;11.32;;
19032;SDS011;9649;51.042;13.804;2023-05-20T16:57:05;18.38;;;12.60;;
19032;SDS011;9649;51.042;13.804;2023-05-20T17:02:08;15.90;;;11.40;;
19032;SDS011;9649;51.042;13.804;2023-05-20T17:07:15;15.48;;;11.73;;
19032;SDS011;9649;51.042;13.804;2023-05-20T17:12:18;15.55;;;11.10;;
19032;SDS011;9649;51.042;13.804;2023-05-20T17:17:21;15.07;;;11.27;;
19032;SDS011;9649;51.042;13.804;2023-05-20T17:22:25;15.02;;;10.98;;
19032;SDS011;9649;51.042;13.804;2023-05-20T17:27:28;15.48;;;11.32;;
19032;SDS011;9649;51.042;13.804;2023-05-20T17:32:31;17.05;;;11.02;;
19032;SDS011;9649;51.042;13.804;2023-05-20T17:37:36;15.90;;;10.90;;
19032;SDS011;9649;51.042;13.804;2023-05-20T17:42:39;13.65;;;10.07;;
19032;SDS011;9649;51.042;13.804;2023-05-20T17:47:41;14.60;;;9.88;;
19032;SDS011;9649;51.042;13.804;2023-05-20T17:52:45;14.40;;;10.43;;
19032;SDS011;9649;51.042;13.804;2023-05-20T17:57:48;14.90;;;10.43;;
19032;SDS011;9649;51.042;13.804;2023-05-20T18:02:51;12.48;;;10.70;;
19032;SDS011;9649;51.042;13.804;2023-05-20T18:07:59;16.50;;;10.73;;
19032;SDS011;9649;51.042;13.804;2023-05-20T18:13:02;22.85;;;10.75;;
19032;SDS011;9649;51.042;13.804;2023-05-20T18:18:04;16.77;;;10.85;;
19032;SDS011;9649;51.042;13.804;2023-05-20T18:23:09;18.30;;;11.00;;
19032;SDS011;9649;51.042;13.804;2023-05-20T18:28:11;16.23;;;11.25;;
19032;SDS011;9649;51.042;13.804;2023-05-20T18:33:14;16.08;;;10.73;;
19032;SDS011;9649;51.042;13.804;2023-05-20T18:38:18;14.35;;;10.57;;
19032;SDS011;9649;51.042;13.804;2023-05-20T18:43:23;17.08;;;11.38;;
19032;SDS011;9649;51.042;13.804;2023-05-20T18:48:26;15.13;;;11.05;;
19032;SDS011;9649;51.042;13.804;2023-05-20T18:53:31;15.50;;;11.95;;
19032;SDS011;9649;51.042;13.804;2023-05-20T18:58:33;17.02;;;10.77;;
19032;SDS011;9649;51.042;13.804;2023-05-20T19:03:36;17.85;;;11.48;;
19032;SDS011;9649;51.042;13.804;2023-05-20T19:08:40;15.32;;;11.52;;
19032;SDS011;9649;51.042;13.804;2023-05-20T19:13:44;18.23;;;11.60;;
19032;SDS011;9649;51.042;13.804;2023-05-20T19:18:50;15.35;;;11.55;;
19032;SDS011;9649;51.042;13.804;2023-05-20T19:23:56;17.45;;;12.32;;
19032;SDS011;9649;51.042;13.804;2023-05-20T19:28:59;17.30;;;12.48;;
19032;SDS011;9649;51.042;13.804;2023-05-20T19:34:02;18.75;;;13.15;;
19032;SDS011;9649;51.042;13.804;2023-05-20T19:39:07;14.90;;;12.00;;
19032;SDS011;9649;51.042;13.804;2023-05-20T19:44:13;17.55;;;12.48;;
19032;SDS011;9649;51.042;13.804;2023-05-20T19:49:16;17.83;;;13.40;;
19032;SDS011;9649;51.042;13.804;2023-05-20T19:54:25;19.52;;;14.48;;
19032;SDS011;9649;51.042;13.804;2023-05-20T19:59:28;19.73;;;13.60;;
19032;SDS011;9649;51.042;13.804;2023-05-20T20:04:33;18.90;;;13.27;;
19032;SDS011;9649;51.042;13.804;2023-05-20T20:09:40;25.70;;;16.48;;
19032;SDS011;9649;51.042;13.804;2023-05-20T20:14:45;19.00;;;13.48;;
19032;SDS011;9649;51.042;13.804;2023-05-20T20:19:51;16.85;;;12.95;;
19032;SDS011;9649;51.042;13.804;2023-05-20T20:24:56;20.10;;;14.00;;
19032;SDS011;9649;51.042;13.804;2023-05-20T20:29:59;19.88;;;14.65;;
19032;SDS011;9649;51.042;13.804;2023-05-20T20:35:02;18.77;;;14.27;;
19032;SDS011;9649;51.042;13.804;2023-05-20T20:40:07;20.17;;;14.48;;
19032;SDS011;9649;51.042;13.804;2023-05-20T20:45:14;22.02;;;15.45;;
19032;SDS011;9649;51.042;13.804;2023-05-20T20:50:17;21.67;;;15.93;;
19032;SDS011;9649;51.042;13.804;2023-05-20T20:55:21;27.85;;;16.42;;
19032;SDS011;9649;51.042;13.804;2023-05-20T21:00:24;23.42;;;16.67;;
19032;SDS011;9649;51.042;13.804;2023-05-20T21:05:27;28.95;;;18.58;;
19032;SDS011;9649;51.042;13.804;2023-05-20T21:10:31;30.00;;;19.40;;
19032;SDS011;9649;51.042;13.804;2023-05-20T21:15:36;26.05;;;17.45;;
19032;SDS011;9649;51.042;13.804;2023-05-20T21:20:38;24.15;;;17.73;;
19032;SDS011;9649;51.042;13.804;2023-05-20T21:25:48;26.67;;;19.30;;
19032;SDS011;9649;51.042;13.804;2023-05-20T21:30:51;28.25;;;19.02;;
19032;SDS011;9649;51.042;13.804;2023-05-20T21:35:55;30.02;;;18.60;;
19032;SDS011;9649;51.042;13.804;2023-05-20T21:40:59;27.80;;;18.23;;
19032;SDS011;9649;51.042;13.804;2023-05-20T21:46:04;25.48;;;18.35;;
19032;SDS011;9649;51.042;13.804;2023-05-20T21:51:08;27.63;;;18.40;;
19032;SDS011;9649;51.042;13.804;2023-05-20T21:56:12;23.73;;;17.58;;
19032;SDS011;9649;51.042;13.804;2023-05-20T22:01:17;28.73;;;18.80;;
19032;SDS011;9649;51.042;13.804;2023-05-20T22:06:22;29.05;;;19.63;;
19032;SDS011;9649;51.042;13.804;2023-05-20T22:11:27;27.17;;;19.73;;
19032;SDS011;9649;51.042;13.804;2023-05-20T22:16:30;26.13;;;19.10;;
19032;SDS011;9649;51.042;13.804;2023-05-20T22:21:36;27.77;;;19.13;;
19032;SDS011;9649;51.042;13.804;2023-05-20T22:26:52;27.63;;;20.25;;
19032;SDS011;9649;51.042;13.804;2023-05-20T22:31:57;29.10;;;19.08;;
19032;SDS011;9649;51.042;13.804;2023-05-20T22:37:00;28.92;;;19.95;;
19032;SDS011;9649;51.042;13.804;2023-05-20T22:42:05;28.80;;;20.45;;
19032;SDS011;9649;51.042;13.804;2023-05-20T22:47:12;28.45;;;20.63;;
19032;SDS011;9649;51.042;13.804;2023-05-20T22:52:15;28.73;;;20.90;;
19032;SDS011;9649;51.042;13.804;2023-05-20T22:57:20;32.95;;;22.02;;
19032;SDS011;9649;51.042;13.804;2023-05-20T23:02:23;35.85;;;22.10;;
19032;SDS011;9649;51.042;13.804;2023-05-20T23:07:26;31.63;;;22.73;;
19032;SDS011;9649;51.042;13.804;2023-05-20T23:12:30;31.58;;;21.30;;
19032;SDS011;9649;51.042;13.804;2023-05-20T23:17:33;31.65;;;21.60;;
19032;SDS011;9649;51.042;13.804;2023-05-20T23:22:36;32.95;;;22.20;;
19032;SDS011;9649;51.042;13.804;2023-05-20T23:27:40;31.00;;;21.38;;
19032;SDS011;9649;51.042;13.804;2023-05-20T23:32:43;30.05;;;20.80;;
19032;SDS011;9649;51.042;13.804;2023-05-20T23:37:46;30.00;;;20.73;;
19032;SDS011;9649;51.042;13.804;2023-05-20T23:42:50;30.50;;;21.73;;
19032;SDS011;9649;51.042;13.804;2023-05-20T23:47:53;32.40;;;21.65;;
19032;SDS011;9649;51.042;13.804;2023-05-20T23:52:56;32.83;;;22.25;;
19032;SDS011;9649;51.042;13.804;2023-05-20T23:58:00;33.72;;;22.67;;
